createdAt,value
2023-04-09T00:03:30.285Z,100084.66
2023-04-09T00:08:33.915Z,100080.97
2023-04-09T00:13:39.743Z,100069.50
2023-04-09T00:18:45.053Z,100080.09
2023-04-09T00:23:48.236Z,100075.81
2023-04-09T00:28:51.978Z,100078.06
2023-04-09T00:33:57.398Z,100083.09
2023-04-09T00:39:00.846Z,100073.47
2023-04-09T00:44:04.268Z,100075.31
2023-04-09T00:49:09.142Z,100073.63
2023-04-09T00:54:12.630Z,100075.28
2023-04-09T00:59:16.773Z,100078.75
2023-04-09T01:04:22.863Z,100077.91
2023-04-09T01:09:30.617Z,100074.47
2023-04-09T01:14:40.331Z,100077.84
2023-04-09T01:19:52.442Z,100077.69
2023-04-09T01:25:15.788Z,100078.59
2023-04-09T01:30:21.741Z,100076.78
2023-04-09T01:35:27.385Z,100085.38
2023-04-09T01:40:31.151Z,100084.31
2023-04-09T01:45:36.460Z,100086.31
2023-04-09T01:50:40.505Z,100083.50
2023-04-09T01:55:44.052Z,100082.66
2023-04-09T02:00:50.100Z,100085.22
2023-04-09T02:06:00.891Z,100086.13
2023-04-09T02:11:06.993Z,100087.00
2023-04-09T02:16:13.749Z,100088.88
2023-04-09T02:21:18.728Z,100084.53
2023-04-09T02:26:22.146Z,100093.16
2023-04-09T02:31:27.306Z,100089.69
2023-04-09T02:36:31.207Z,100092.13
2023-04-09T02:41:34.664Z,100092.09
2023-04-09T02:46:40.225Z,100081.00
2023-04-09T02:51:43.733Z,100081.00
2023-04-09T02:56:47.211Z,100090.47
2023-04-09T03:01:52.136Z,100087.16
2023-04-09T03:06:55.458Z,100087.00
2023-04-09T03:11:59.021Z,100088.78
2023-04-09T03:17:03.913Z,100090.97
2023-04-09T03:22:07.085Z,100087.16
2023-04-09T03:27:10.574Z,100089.13
2023-04-09T03:32:17.843Z,100090.09
2023-04-09T03:37:22.451Z,100095.25
2023-04-09T03:42:25.975Z,100089.28
2023-04-09T03:47:30.927Z,100090.09
2023-04-09T03:52:34.085Z,100084.13
2023-04-09T03:57:37.604Z,100084.44
2023-04-09T04:02:42.782Z,100079.97
2023-04-09T04:07:46.414Z,100076.53
2023-04-09T04:12:49.867Z,100076.03
2023-04-09T04:17:54.741Z,100081.16
2023-04-09T04:22:57.888Z,100076.28
2023-04-09T04:28:01.558Z,100075.06
2023-04-09T04:33:06.479Z,100077.59
2023-04-09T04:38:09.713Z,100076.66
2023-04-09T04:43:13.106Z,100074.81
2023-04-09T04:48:18.037Z,100075.88
2023-04-09T04:53:21.493Z,100075.38
2023-04-09T04:58:24.985Z,100076.00
2023-04-09T05:03:29.968Z,100070.31
2023-04-09T05:08:33.532Z,100070.84
2023-04-09T05:13:36.985Z,100082.72
2023-04-09T05:18:41.798Z,100079.84
2023-04-09T05:23:45.211Z,100077.19
2023-04-09T05:28:48.758Z,100066.91
2023-04-09T05:33:54.353Z,100070.69
2023-04-09T05:38:57.805Z,100077.94
2023-04-09T05:44:01.431Z,100075.72
2023-04-09T05:49:06.377Z,100083.38
2023-04-09T05:54:09.896Z,100076.00
2023-04-09T05:59:13.418Z,100084.03
2023-04-09T06:04:18.526Z,100086.84
2023-04-09T06:09:22.267Z,100089.25
2023-04-09T06:14:25.823Z,100090.13
2023-04-09T06:19:32.986Z,100094.09
2023-04-09T06:24:36.639Z,100093.56
2023-04-09T06:29:40.150Z,100097.69
2023-04-09T06:34:45.130Z,100096.28
2023-04-09T06:40:00.471Z,100099.25
2023-04-09T06:45:08.657Z,100100.34
2023-04-09T06:50:13.676Z,100109.91
2023-04-09T06:55:17.134Z,100108.00
2023-04-09T07:00:20.272Z,100105.63
2023-04-09T07:05:25.374Z,100106.50
2023-04-09T07:10:28.831Z,100111.31
2023-04-09T07:15:33.727Z,100111.09
2023-04-09T07:20:38.669Z,100105.63
2023-04-09T07:25:42.487Z,100112.91
2023-04-09T07:30:47.152Z,100107.91
2023-04-09T07:35:53.263Z,100104.22
2023-04-09T07:40:57.022Z,100103.78
2023-04-09T07:46:00.485Z,100106.56
2023-04-09T07:51:06.323Z,100109.22
2023-04-09T07:56:09.842Z,100102.97
2023-04-09T08:01:13.458Z,100084.75
2023-04-09T08:06:18.694Z,100103.31
2023-04-09T08:11:25.389Z,100105.31
2023-04-09T08:16:30.386Z,100080.59
2023-04-09T08:21:35.939Z,100098.94
2023-04-09T08:26:39.700Z,100093.38
2023-04-09T08:31:43.609Z,100084.00
2023-04-09T08:36:50.049Z,100089.31
2023-04-09T08:41:54.078Z,100078.94
2023-04-09T08:46:59.175Z,100077.31
2023-04-09T08:52:05.077Z,100068.88
2023-04-09T08:57:09.217Z,100082.91
2023-04-09T09:02:13.187Z,100078.63
2023-04-09T09:07:18.538Z,100074.44
2023-04-09T09:12:36.238Z,100064.88
2023-04-09T09:17:56.125Z,100070.13
2023-04-09T09:23:01.712Z,100075.00
2023-04-09T09:28:09.782Z,100057.25
2023-04-09T09:33:13.847Z,100058.25
2023-04-09T09:38:19.359Z,100049.69
2023-04-09T09:43:23.221Z,100053.00
2023-04-09T09:48:28.324Z,100057.22
2023-04-09T09:53:34.563Z,100033.97
2023-04-09T09:58:39.949Z,100044.97
2023-04-09T10:03:45.583Z,100050.59
2023-04-09T10:08:51.246Z,100033.53
2023-04-09T10:13:59.027Z,100041.88
2023-04-09T10:19:03.651Z,100035.16
2023-04-09T10:24:09.832Z,100043.28
2023-04-09T10:29:15.171Z,100028.44
2023-04-09T10:34:19.653Z,100037.19
2023-04-09T10:39:27.265Z,100033.22
2023-04-09T10:44:32.106Z,100026.50
2023-04-09T10:49:38.427Z,100027.66
2023-04-09T10:54:46.102Z,100027.25
2023-04-09T10:59:51.909Z,100025.25
2023-04-09T11:05:06.845Z,100029.00
2023-04-09T11:10:12.126Z,100036.88
2023-04-09T11:15:18.948Z,100032.13
2023-04-09T11:20:23.819Z,100032.59
2023-04-09T11:25:30.464Z,100036.38
2023-04-09T11:30:35.206Z,100025.25
2023-04-09T11:35:38.852Z,100031.13
2023-04-09T11:40:48.904Z,100027.78
2023-04-09T11:45:52.913Z,100024.47
2023-04-09T11:50:56.667Z,100017.56
2023-04-09T11:56:01.760Z,100016.81
2023-04-09T12:01:05.333Z,100020.34
2023-04-09T12:06:11.039Z,100012.75
2023-04-09T12:11:17.158Z,100004.06
2023-04-09T12:16:21.878Z,100004.66
2023-04-09T12:21:27.145Z,100003.44
2023-04-09T12:26:32.097Z,100002.31
2023-04-09T12:31:36.270Z,99992.53
2023-04-09T12:36:41.639Z,100005.19
2023-04-09T12:41:46.489Z,99999.25
2023-04-09T12:46:50.279Z,99997.53
2023-04-09T12:52:13.802Z,99987.19
2023-04-09T12:57:18.674Z,100001.22
2023-04-09T13:02:31.988Z,99997.47
2023-04-09T13:07:35.627Z,100002.56
2023-04-09T13:12:51.602Z,99997.38
2023-04-09T13:18:14.768Z,100007.88
2023-04-09T13:23:26.977Z,100006.22
2023-04-09T13:28:31.848Z,100008.44
2023-04-09T13:33:55.439Z,100011.84
2023-04-09T13:39:04.386Z,99972.25
2023-04-09T13:44:28.111Z,100018.44
2023-04-09T13:49:51.606Z,100021.28
2023-04-09T13:55:13.614Z,100008.44
2023-04-09T14:00:37.370Z,100005.81
2023-04-09T14:05:41.040Z,99999.06
2023-04-09T14:10:44.526Z,99994.00
2023-04-09T14:15:50.225Z,99988.81
2023-04-09T14:20:56.114Z,99994.00
2023-04-09T14:25:59.686Z,99987.09
2023-04-09T14:31:04.918Z,99987.06
2023-04-09T14:36:09.181Z,99988.75
2023-04-09T14:41:12.714Z,99982.69
2023-04-09T14:46:17.722Z,99975.66
2023-04-09T14:51:21.307Z,99975.63
2023-04-09T14:56:25.581Z,99977.25
2023-04-09T15:01:32.570Z,99972.81
2023-04-09T15:06:36.633Z,99974.50
2023-04-09T15:11:40.116Z,99970.16
2023-04-09T15:16:45.074Z,99969.25
2023-04-09T15:21:48.644Z,99965.81
2023-04-09T15:26:52.195Z,99963.22
2023-04-09T15:31:57.151Z,99970.28
2023-04-09T15:37:00.740Z,99968.63
2023-04-09T15:42:04.456Z,99966.09
2023-04-09T15:47:09.648Z,99952.22
2023-04-09T15:52:13.293Z,99959.19
2023-04-09T15:57:16.740Z,99963.63
2023-04-09T16:02:23.506Z,99958.44
2023-04-09T16:07:28.889Z,99958.47
2023-04-09T16:12:32.427Z,99959.41
2023-04-09T16:17:40.804Z,99960.31
2023-04-09T16:22:44.834Z,99964.69
2023-04-09T16:27:48.293Z,99962.16
2023-04-09T16:32:53.151Z,99966.50
2023-04-09T16:37:56.847Z,99973.47
2023-04-09T16:43:00.474Z,99979.50
2023-04-09T16:48:06.478Z,99976.00
2023-04-09T16:53:10.200Z,99971.56
2023-04-09T16:58:13.726Z,99972.38
2023-04-09T17:03:18.750Z,99977.50
2023-04-09T17:08:24.519Z,99980.84
2023-04-09T17:13:28.029Z,99984.22
2023-04-09T17:18:32.960Z,99984.16
2023-04-09T17:23:36.437Z,99983.03
2023-04-09T17:28:39.918Z,99981.97
2023-04-09T17:33:47.229Z,99995.75
2023-04-09T17:38:52.330Z,99992.09
2023-04-09T17:43:56.529Z,99992.84
2023-04-09T17:49:01.763Z,99997.88
2023-04-09T17:54:05.564Z,99993.38
2023-04-09T17:59:08.985Z,99990.59
2023-04-09T18:04:14.101Z,99991.25
2023-04-09T18:09:17.820Z,99997.03
2023-04-09T18:14:21.420Z,99998.66
2023-04-09T18:19:26.520Z,100005.25
2023-04-09T18:24:30.395Z,100005.13
2023-04-09T18:29:33.853Z,100000.66
2023-04-09T18:34:38.733Z,100002.22
2023-04-09T18:39:42.046Z,99996.94
2023-04-09T18:44:45.892Z,100001.81
2023-04-09T18:49:50.945Z,100002.66
2023-04-09T18:54:54.461Z,100001.63
2023-04-09T18:59:57.920Z,100004.09
2023-04-09T19:05:03.458Z,100003.97
2023-04-09T19:10:07.779Z,100000.38
2023-04-09T19:15:12.469Z,100005.41
2023-04-09T19:20:17.615Z,100003.53
2023-04-09T19:25:21.578Z,99998.19
2023-04-09T19:30:25.050Z,100003.28
2023-04-09T19:35:30.175Z,99996.31
2023-04-09T19:40:33.780Z,100003.22
2023-04-09T19:45:37.928Z,99999.91
2023-04-09T19:50:43.663Z,100000.94
2023-04-09T19:55:47.200Z,100006.09
2023-04-09T20:00:51.430Z,99997.47
2023-04-09T20:05:56.539Z,100000.28
2023-04-09T20:11:00.001Z,100009.91
2023-04-09T20:16:03.881Z,100007.38
2023-04-09T20:21:09.430Z,100007.47
2023-04-09T20:26:13.721Z,99991.94
2023-04-09T20:31:17.332Z,99999.97
2023-04-09T20:36:22.317Z,99997.53
2023-04-09T20:41:25.495Z,99996.84
2023-04-09T20:46:28.966Z,99998.47
2023-04-09T20:51:33.865Z,99994.28
2023-04-09T20:56:37.176Z,100004.66
2023-04-09T21:01:40.742Z,99999.28
2023-04-09T21:06:45.748Z,100001.03
2023-04-09T21:11:48.878Z,100006.22
2023-04-09T21:16:52.628Z,99995.38
2023-04-09T21:21:57.729Z,100003.34
2023-04-09T21:27:01.854Z,100000.91
2023-04-09T21:32:05.374Z,100002.69
2023-04-09T21:37:10.382Z,99993.31
2023-04-09T21:42:13.910Z,100000.84
2023-04-09T21:47:17.404Z,99989.50
2023-04-09T21:52:22.597Z,99992.97
2023-04-09T21:57:26.210Z,100000.00
2023-04-09T22:02:29.824Z,100006.25
2023-04-09T22:07:36.208Z,100005.56
2023-04-09T22:12:39.734Z,100012.41
2023-04-09T22:17:43.253Z,100009.72
2023-04-09T22:22:48.478Z,100013.22
2023-04-09T22:27:53.484Z,100008.03
2023-04-09T22:32:57.086Z,99996.63
2023-04-09T22:38:03.399Z,100013.25
2023-04-09T22:43:07.590Z,100008.09
2023-04-09T22:48:11.113Z,100007.31
2023-04-09T22:53:19.226Z,100010.03
2023-04-09T22:58:23.201Z,100003.69
2023-04-09T23:03:27.128Z,100008.63
2023-04-09T23:08:32.065Z,100010.13
2023-04-09T23:13:35.790Z,100009.53
2023-04-09T23:18:39.269Z,99986.66
2023-04-09T23:23:44.171Z,100006.94
2023-04-09T23:28:47.352Z,100021.09
2023-04-09T23:33:52.066Z,100014.47
2023-04-09T23:38:56.981Z,100015.56
2023-04-09T23:44:00.501Z,100016.53
2023-04-09T23:49:04.097Z,100014.78
2023-04-09T23:54:09.014Z,100010.50
2023-04-09T23:59:12.937Z,100012.47
